sensor_id;sensor_type;location;lat;lon;timestamp;temperature;humidity
57829;DHT22;43657;52.698;6.314;2023-12-07T00:02:16;-0.80;99.90
57829;DHT22;43657;52.698;6.314;2023-12-07T00:04:44;-0.90;99.90
57829;DHT22;43657;52.698;6.314;2023-12-07T00:07:10;-0.90;99.90
57829;DHT22;43657;52.698;6.314;2023-12-07T00:09:36;-0.90;99.90
57829;DHT22;43657;52.698;6.314;2023-12-07T00:12:02;-0.90;99.90
57829;DHT22;43657;52.698;6.314;2023-12-07T00:14:27;-0.90;99.90
57829;DHT22;43657;52.698;6.314;2023-12-07T00:16:53;-0.90;99.90
57829;DHT22;43657;52.698;6.314;2023-12-07T00:19:19;-1.00;99.90
57829;DHT22;43657;52.698;6.314;2023-12-07T00:21:45;-1.00;99.90
57829;DHT22;43657;52.698;6.314;2023-12-07T00:24:12;-1.00;99.90
57829;DHT22;43657;52.698;6.314;2023-12-07T00:26:38;-1.00;99.90
57829;DHT22;43657;52.698;6.314;2023-12-07T00:29:03;-1.00;99.90
57829;DHT22;43657;52.698;6.314;2023-12-07T00:31:29;-1.00;99.90
57829;DHT22;43657;52.698;6.314;2023-12-07T00:33:55;-1.00;99.90
57829;DHT22;43657;52.698;6.314;2023-12-07T00:36:21;-1.00;99.90
57829;DHT22;43657;52.698;6.314;2023-12-07T00:38:47;-1.00;99.90
57829;DHT22;43657;52.698;6.314;2023-12-07T00:41:13;-1.00;99.90
57829;DHT22;43657;52.698;6.314;2023-12-07T00:43:48;-1.00;99.90
57829;DHT22;43657;52.698;6.314;2023-12-07T00:46:14;-1.10;99.90
57829;DHT22;43657;52.698;6.314;2023-12-07T00:48:40;-1.00;99.90
57829;DHT22;43657;52.698;6.314;2023-12-07T00:51:05;-1.10;99.90
57829;DHT22;43657;52.698;6.314;2023-12-07T00:53:32;-1.10;99.90
57829;DHT22;43657;52.698;6.314;2023-12-07T00:55:58;-1.00;99.90
57829;DHT22;43657;52.698;6.314;2023-12-07T00:58:23;-0.90;99.90
57829;DHT22;43657;52.698;6.314;2023-12-07T01:00:49;-1.00;99.90
57829;DHT22;43657;52.698;6.314;2023-12-07T01:03:15;-0.90;99.90
57829;DHT22;43657;52.698;6.314;2023-12-07T01:05:42;-0.90;99.90
57829;DHT22;43657;52.698;6.314;2023-12-07T01:08:11;-0.90;99.90
57829;DHT22;43657;52.698;6.314;2023-12-07T01:10:44;-0.80;99.90
57829;DHT22;43657;52.698;6.314;2023-12-07T01:13:10;-0.90;99.90
57829;DHT22;43657;52.698;6.314;2023-12-07T01:15:36;-0.80;99.90
57829;DHT22;43657;52.698;6.314;2023-12-07T01:18:05;-0.90;99.90
57829;DHT22;43657;52.698;6.314;2023-12-07T01:20:33;-0.90;99.90
57829;DHT22;43657;52.698;6.314;2023-12-07T01:22:59;-0.90;99.90
57829;DHT22;43657;52.698;6.314;2023-12-07T01:25:25;-0.90;99.90
57829;DHT22;43657;52.698;6.314;2023-12-07T01:27:51;-0.90;99.90
57829;DHT22;43657;52.698;6.314;2023-12-07T01:30:17;-0.90;99.90
57829;DHT22;43657;52.698;6.314;2023-12-07T01:32:43;-0.90;99.90
57829;DHT22;43657;52.698;6.314;2023-12-07T01:35:15;-1.00;99.90
57829;DHT22;43657;52.698;6.314;2023-12-07T01:37:51;-1.00;99.90
57829;DHT22;43657;52.698;6.314;2023-12-07T01:40:20;-0.90;99.90
57829;DHT22;43657;52.698;6.314;2023-12-07T01:42:57;-1.00;99.90
57829;DHT22;43657;52.698;6.314;2023-12-07T01:45:29;-1.00;99.90
57829;DHT22;43657;52.698;6.314;2023-12-07T01:48:01;-1.00;99.90
57829;DHT22;43657;52.698;6.314;2023-12-07T01:50:28;-1.00;99.90
57829;DHT22;43657;52.698;6.314;2023-12-07T01:53:10;-1.00;99.90
57829;DHT22;43657;52.698;6.314;2023-12-07T01:55:47;-0.90;99.90
57829;DHT22;43657;52.698;6.314;2023-12-07T02:01:11;-0.90;99.90
57829;DHT22;43657;52.698;6.314;2023-12-07T02:03:41;-0.80;99.90
57829;DHT22;43657;52.698;6.314;2023-12-07T02:06:09;-0.90;99.90
57829;DHT22;43657;52.698;6.314;2023-12-07T02:08:39;-1.00;99.90
57829;DHT22;43657;52.698;6.314;2023-12-07T02:11:10;-1.00;99.90
57829;DHT22;43657;52.698;6.314;2023-12-07T02:13:40;-1.00;99.90
57829;DHT22;43657;52.698;6.314;2023-12-07T02:19:27;-1.00;99.90
57829;DHT22;43657;52.698;6.314;2023-12-07T02:22:12;-1.10;99.90
57829;DHT22;43657;52.698;6.314;2023-12-07T02:25:03;-1.00;99.90
57829;DHT22;43657;52.698;6.314;2023-12-07T02:27:38;-1.10;99.90
57829;DHT22;43657;52.698;6.314;2023-12-07T02:30:06;-1.10;99.90
57829;DHT22;43657;52.698;6.314;2023-12-07T02:32:33;-1.20;99.90
57829;DHT22;43657;52.698;6.314;2023-12-07T02:34:59;-1.20;99.90
57829;DHT22;43657;52.698;6.314;2023-12-07T02:37:33;-1.30;99.90
57829;DHT22;43657;52.698;6.314;2023-12-07T02:40:03;-1.20;99.90
57829;DHT22;43657;52.698;6.314;2023-12-07T02:42:33;-1.20;99.90
57829;DHT22;43657;52.698;6.314;2023-12-07T02:45:05;-1.20;99.90
57829;DHT22;43657;52.698;6.314;2023-12-07T02:47:31;-1.20;99.90
57829;DHT22;43657;52.698;6.314;2023-12-07T02:49:59;-1.20;99.90
57829;DHT22;43657;52.698;6.314;2023-12-07T02:52:25;-1.20;99.90
57829;DHT22;43657;52.698;6.314;2023-12-07T02:54:54;-1.30;99.90
57829;DHT22;43657;52.698;6.314;2023-12-07T02:57:22;-1.20;99.90
57829;DHT22;43657;52.698;6.314;2023-12-07T02:59:52;-1.20;99.90
57829;DHT22;43657;52.698;6.314;2023-12-07T03:02:18;-1.10;99.90
57829;DHT22;43657;52.698;6.314;2023-12-07T03:04:51;-1.20;99.90
57829;DHT22;43657;52.698;6.314;2023-12-07T03:07:23;-1.20;99.90
57829;DHT22;43657;52.698;6.314;2023-12-07T03:09:51;-1.20;99.90
57829;DHT22;43657;52.698;6.314;2023-12-07T03:12:19;-1.20;99.90
57829;DHT22;43657;52.698;6.314;2023-12-07T03:14:45;-1.20;99.90
57829;DHT22;43657;52.698;6.314;2023-12-07T03:17:14;-1.20;99.90
57829;DHT22;43657;52.698;6.314;2023-12-07T03:19:43;-1.30;99.90
57829;DHT22;43657;52.698;6.314;2023-12-07T03:22:09;-1.30;99.90
57829;DHT22;43657;52.698;6.314;2023-12-07T03:24:45;-1.30;99.90
57829;DHT22;43657;52.698;6.314;2023-12-07T03:27:16;-1.30;99.90
57829;DHT22;43657;52.698;6.314;2023-12-07T03:29:42;-1.40;99.90
57829;DHT22;43657;52.698;6.314;2023-12-07T03:32:08;-1.40;99.90
57829;DHT22;43657;52.698;6.314;2023-12-07T03:34:35;-1.40;99.90
57829;DHT22;43657;52.698;6.314;2023-12-07T03:37:02;-1.40;99.90
57829;DHT22;43657;52.698;6.314;2023-12-07T03:39:32;-1.50;99.90
57829;DHT22;43657;52.698;6.314;2023-12-07T03:41:59;-1.50;99.90
57829;DHT22;43657;52.698;6.314;2023-12-07T03:44:43;-1.50;99.90
57829;DHT22;43657;52.698;6.314;2023-12-07T03:47:09;-1.50;99.90
57829;DHT22;43657;52.698;6.314;2023-12-07T03:49:35;-1.60;99.90
57829;DHT22;43657;52.698;6.314;2023-12-07T03:52:01;-1.60;99.90
57829;DHT22;43657;52.698;6.314;2023-12-07T03:54:28;-1.60;99.90
57829;DHT22;43657;52.698;6.314;2023-12-07T03:56:54;-1.60;99.90
57829;DHT22;43657;52.698;6.314;2023-12-07T03:59:20;-1.60;99.90
57829;DHT22;43657;52.698;6.314;2023-12-07T04:01:47;-1.60;99.90
57829;DHT22;43657;52.698;6.314;2023-12-07T04:04:14;-1.60;99.90
57829;DHT22;43657;52.698;6.314;2023-12-07T04:06:40;-1.60;99.90
57829;DHT22;43657;52.698;6.314;2023-12-07T04:09:06;-1.50;99.90
57829;DHT22;43657;52.698;6.314;2023-12-07T04:11:33;-1.50;99.90
57829;DHT22;43657;52.698;6.314;2023-12-07T04:13:58;-1.50;99.90
57829;DHT22;43657;52.698;6.314;2023-12-07T04:16:30;-1.50;99.90
57829;DHT22;43657;52.698;6.314;2023-12-07T04:18:56;-1.50;99.90
57829;DHT22;43657;52.698;6.314;2023-12-07T04:21:25;-1.40;99.90
57829;DHT22;43657;52.698;6.314;2023-12-07T04:23:51;-1.40;99.90
57829;DHT22;43657;52.698;6.314;2023-12-07T04:26:17;-1.40;99.90
57829;DHT22;43657;52.698;6.314;2023-12-07T04:28:47;-1.40;99.90
57829;DHT22;43657;52.698;6.314;2023-12-07T04:31:14;-1.30;99.90
57829;DHT22;43657;52.698;6.314;2023-12-07T04:33:40;-1.30;99.90
57829;DHT22;43657;52.698;6.314;2023-12-07T04:36:10;-1.30;99.90
57829;DHT22;43657;52.698;6.314;2023-12-07T04:38:37;-1.20;99.90
57829;DHT22;43657;52.698;6.314;2023-12-07T04:41:03;-1.30;99.90
57829;DHT22;43657;52.698;6.314;2023-12-07T04:43:29;-1.30;99.90
57829;DHT22;43657;52.698;6.314;2023-12-07T04:45:56;-1.20;99.90
57829;DHT22;43657;52.698;6.314;2023-12-07T04:48:22;-1.20;99.90
57829;DHT22;43657;52.698;6.314;2023-12-07T04:50:50;-1.20;99.90
57829;DHT22;43657;52.698;6.314;2023-12-07T04:53:16;-1.10;99.90
57829;DHT22;43657;52.698;6.314;2023-12-07T04:55:46;-1.10;99.90
57829;DHT22;43657;52.698;6.314;2023-12-07T04:58:18;-1.00;99.90
57829;DHT22;43657;52.698;6.314;2023-12-07T05:00:44;-0.90;99.90
57829;DHT22;43657;52.698;6.314;2023-12-07T05:03:10;-0.90;99.90
57829;DHT22;43657;52.698;6.314;2023-12-07T05:05:36;-0.90;99.90
57829;DHT22;43657;52.698;6.314;2023-12-07T05:08:03;-0.90;99.90
57829;DHT22;43657;52.698;6.314;2023-12-07T05:10:31;-0.80;99.90
57829;DHT22;43657;52.698;6.314;2023-12-07T05:12:57;-0.80;99.90
57829;DHT22;43657;52.698;6.314;2023-12-07T05:15:23;-0.80;99.90
57829;DHT22;43657;52.698;6.314;2023-12-07T05:17:50;-0.80;99.90
57829;DHT22;43657;52.698;6.314;2023-12-07T05:20:15;-0.80;99.90
57829;DHT22;43657;52.698;6.314;2023-12-07T05:22:41;-0.80;99.90
57829;DHT22;43657;52.698;6.314;2023-12-07T05:25:07;-0.70;99.90
57829;DHT22;43657;52.698;6.314;2023-12-07T05:27:32;-0.70;99.90
57829;DHT22;43657;52.698;6.314;2023-12-07T05:29:58;-0.80;99.90
57829;DHT22;43657;52.698;6.314;2023-12-07T05:32:23;-0.80;99.90
57829;DHT22;43657;52.698;6.314;2023-12-07T05:34:49;-0.80;99.90
57829;DHT22;43657;52.698;6.314;2023-12-07T05:37:15;-0.90;99.90
57829;DHT22;43657;52.698;6.314;2023-12-07T05:39:41;-0.80;99.90
57829;DHT22;43657;52.698;6.314;2023-12-07T05:42:06;-0.80;99.90
57829;DHT22;43657;52.698;6.314;2023-12-07T05:44:32;-0.80;99.90
57829;DHT22;43657;52.698;6.314;2023-12-07T05:46:58;-0.90;99.90
57829;DHT22;43657;52.698;6.314;2023-12-07T05:49:23;-0.80;99.90
57829;DHT22;43657;52.698;6.314;2023-12-07T05:51:49;-0.80;99.90
57829;DHT22;43657;52.698;6.314;2023-12-07T05:54:15;-0.80;99.90
57829;DHT22;43657;52.698;6.314;2023-12-07T05:56:40;-0.80;99.90
57829;DHT22;43657;52.698;6.314;2023-12-07T05:59:06;-0.90;99.90
57829;DHT22;43657;52.698;6.314;2023-12-07T06:01:32;-0.90;99.90
57829;DHT22;43657;52.698;6.314;2023-12-07T06:03:58;-0.90;99.90
57829;DHT22;43657;52.698;6.314;2023-12-07T06:06:24;-0.90;99.90
57829;DHT22;43657;52.698;6.314;2023-12-07T06:08:49;-0.90;99.90
57829;DHT22;43657;52.698;6.314;2023-12-07T06:11:15;-0.90;99.90
57829;DHT22;43657;52.698;6.314;2023-12-07T06:13:41;-0.90;99.90
57829;DHT22;43657;52.698;6.314;2023-12-07T06:16:06;-1.00;99.90
57829;DHT22;43657;52.698;6.314;2023-12-07T06:18:32;-1.00;99.90
57829;DHT22;43657;52.698;6.314;2023-12-07T06:20:58;-1.00;99.90
57829;DHT22;43657;52.698;6.314;2023-12-07T06:23:23;-1.00;99.90
57829;DHT22;43657;52.698;6.314;2023-12-07T06:25:49;-1.00;99.90
57829;DHT22;43657;52.698;6.314;2023-12-07T06:28:15;-1.10;99.90
57829;DHT22;43657;52.698;6.314;2023-12-07T06:30:40;-1.10;99.90
57829;DHT22;43657;52.698;6.314;2023-12-07T06:33:06;-1.20;99.90
57829;DHT22;43657;52.698;6.314;2023-12-07T06:35:31;-1.20;99.90
57829;DHT22;43657;52.698;6.314;2023-12-07T06:37:57;-1.30;99.90
57829;DHT22;43657;52.698;6.314;2023-12-07T06:40:23;-1.30;99.90
57829;DHT22;43657;52.698;6.314;2023-12-07T06:42:48;-1.40;99.90
57829;DHT22;43657;52.698;6.314;2023-12-07T06:45:14;-1.40;99.90
57829;DHT22;43657;52.698;6.314;2023-12-07T06:47:43;-1.40;99.90
57829;DHT22;43657;52.698;6.314;2023-12-07T06:50:09;-1.50;99.90
57829;DHT22;43657;52.698;6.314;2023-12-07T06:52:38;-1.50;99.90
57829;DHT22;43657;52.698;6.314;2023-12-07T06:55:05;-1.50;99.90
57829;DHT22;43657;52.698;6.314;2023-12-07T06:57:31;-1.60;99.90
57829;DHT22;43657;52.698;6.314;2023-12-07T06:59:57;-1.60;99.90
57829;DHT22;43657;52.698;6.314;2023-12-07T07:02:22;-1.60;99.90
57829;DHT22;43657;52.698;6.314;2023-12-07T07:04:48;-1.50;99.90
57829;DHT22;43657;52.698;6.314;2023-12-07T07:07:15;-1.60;99.90
57829;DHT22;43657;52.698;6.314;2023-12-07T07:09:40;-1.70;99.90
57829;DHT22;43657;52.698;6.314;2023-12-07T07:12:06;-1.70;99.90
57829;DHT22;43657;52.698;6.314;2023-12-07T07:14:32;-1.70;99.90
57829;DHT22;43657;52.698;6.314;2023-12-07T07:16:58;-1.70;99.90
57829;DHT22;43657;52.698;6.314;2023-12-07T07:19:23;-1.70;99.90
57829;DHT22;43657;52.698;6.314;2023-12-07T07:21:49;-1.60;99.90
57829;DHT22;43657;52.698;6.314;2023-12-07T07:24:14;-1.70;99.90
57829;DHT22;43657;52.698;6.314;2023-12-07T07:26:40;-1.70;99.90
57829;DHT22;43657;52.698;6.314;2023-12-07T07:29:06;-1.70;99.90
57829;DHT22;43657;52.698;6.314;2023-12-07T07:31:32;-1.60;99.90
57829;DHT22;43657;52.698;6.314;2023-12-07T07:33:57;-1.60;99.90
57829;DHT22;43657;52.698;6.314;2023-12-07T07:36:23;-1.60;99.90
57829;DHT22;43657;52.698;6.314;2023-12-07T07:38:48;-1.60;99.90
57829;DHT22;43657;52.698;6.314;2023-12-07T07:41:14;-1.60;99.90
57829;DHT22;43657;52.698;6.314;2023-12-07T07:43:40;-1.60;99.90
57829;DHT22;43657;52.698;6.314;2023-12-07T07:46:06;-1.60;99.90
57829;DHT22;43657;52.698;6.314;2023-12-07T07:48:32;-1.60;99.90
57829;DHT22;43657;52.698;6.314;2023-12-07T07:50:57;-1.60;99.90
57829;DHT22;43657;52.698;6.314;2023-12-07T07:53:24;-1.60;99.90
57829;DHT22;43657;52.698;6.314;2023-12-07T07:55:49;-1.60;99.90
57829;DHT22;43657;52.698;6.314;2023-12-07T07:58:15;-1.60;99.90
57829;DHT22;43657;52.698;6.314;2023-12-07T08:00:40;-1.60;99.90
57829;DHT22;43657;52.698;6.314;2023-12-07T08:03:06;-1.70;99.90
57829;DHT22;43657;52.698;6.314;2023-12-07T08:05:32;-1.60;99.90
57829;DHT22;43657;52.698;6.314;2023-12-07T08:07:58;-1.60;99.90
57829;DHT22;43657;52.698;6.314;2023-12-07T08:10:24;-1.60;99.90
57829;DHT22;43657;52.698;6.314;2023-12-07T08:12:49;-1.60;99.90
57829;DHT22;43657;52.698;6.314;2023-12-07T08:15:15;-1.50;99.90
57829;DHT22;43657;52.698;6.314;2023-12-07T08:17:41;-1.60;99.90
57829;DHT22;43657;52.698;6.314;2023-12-07T08:20:10;-1.50;99.90
57829;DHT22;43657;52.698;6.314;2023-12-07T08:22:39;-1.50;99.90
57829;DHT22;43657;52.698;6.314;2023-12-07T08:25:06;-1.50;99.90
57829;DHT22;43657;52.698;6.314;2023-12-07T08:27:33;-1.40;99.90
57829;DHT22;43657;52.698;6.314;2023-12-07T08:29:59;-1.40;99.90
57829;DHT22;43657;52.698;6.314;2023-12-07T08:32:25;-1.40;99.90
57829;DHT22;43657;52.698;6.314;2023-12-07T08:34:54;-1.30;99.90
57829;DHT22;43657;52.698;6.314;2023-12-07T08:37:19;-1.30;99.90
57829;DHT22;43657;52.698;6.314;2023-12-07T08:39:45;-1.30;99.90
57829;DHT22;43657;52.698;6.314;2023-12-07T08:42:11;-1.20;99.90
57829;DHT22;43657;52.698;6.314;2023-12-07T08:44:37;-1.10;99.90
57829;DHT22;43657;52.698;6.314;2023-12-07T08:47:02;-1.00;99.90
57829;DHT22;43657;52.698;6.314;2023-12-07T08:49:28;-1.00;99.90
57829;DHT22;43657;52.698;6.314;2023-12-07T08:51:54;-0.90;99.90
57829;DHT22;43657;52.698;6.314;2023-12-07T08:54:21;-0.90;99.90
57829;DHT22;43657;52.698;6.314;2023-12-07T08:56:46;-0.80;99.90
57829;DHT22;43657;52.698;6.314;2023-12-07T08:59:12;-0.80;99.90
57829;DHT22;43657;52.698;6.314;2023-12-07T09:01:38;-0.70;99.90
57829;DHT22;43657;52.698;6.314;2023-12-07T09:04:03;-0.70;99.90
57829;DHT22;43657;52.698;6.314;2023-12-07T09:06:29;-0.70;99.90
57829;DHT22;43657;52.698;6.314;2023-12-07T09:08:55;-0.70;99.90
57829;DHT22;43657;52.698;6.314;2023-12-07T09:11:21;-0.60;99.90
57829;DHT22;43657;52.698;6.314;2023-12-07T09:13:46;-0.60;99.90
57829;DHT22;43657;52.698;6.314;2023-12-07T09:16:12;-0.50;99.90
57829;DHT22;43657;52.698;6.314;2023-12-07T09:18:38;-0.50;99.90
57829;DHT22;43657;52.698;6.314;2023-12-07T09:21:04;-0.40;99.90
57829;DHT22;43657;52.698;6.314;2023-12-07T09:23:29;-0.50;99.90
57829;DHT22;43657;52.698;6.314;2023-12-07T09:25:55;-0.40;99.90
57829;DHT22;43657;52.698;6.314;2023-12-07T09:28:20;-0.30;99.90
57829;DHT22;43657;52.698;6.314;2023-12-07T09:30:46;-0.30;99.90
57829;DHT22;43657;52.698;6.314;2023-12-07T09:33:12;-0.30;99.90
57829;DHT22;43657;52.698;6.314;2023-12-07T09:35:39;-0.20;99.90
57829;DHT22;43657;52.698;6.314;2023-12-07T09:38:04;-0.20;99.90
57829;DHT22;43657;52.698;6.314;2023-12-07T09:40:30;-0.10;99.90
57829;DHT22;43657;52.698;6.314;2023-12-07T09:42:56;-0.10;99.90
57829;DHT22;43657;52.698;6.314;2023-12-07T09:45:21;-0.10;99.90
57829;DHT22;43657;52.698;6.314;2023-12-07T09:47:52;-0.10;99.90
57829;DHT22;43657;52.698;6.314;2023-12-07T09:50:20;-0.10;99.90
57829;DHT22;43657;52.698;6.314;2023-12-07T09:52:48;0.00;99.90
57829;DHT22;43657;52.698;6.314;2023-12-07T09:55:16;0.00;99.90
57829;DHT22;43657;52.698;6.314;2023-12-07T09:57:42;0.00;99.90
57829;DHT22;43657;52.698;6.314;2023-12-07T10:00:08;0.00;99.90
57829;DHT22;43657;52.698;6.314;2023-12-07T10:02:38;0.10;99.90
57829;DHT22;43657;52.698;6.314;2023-12-07T10:05:08;0.10;99.90
57829;DHT22;43657;52.698;6.314;2023-12-07T10:07:41;0.10;99.90
57829;DHT22;43657;52.698;6.314;2023-12-07T10:10:07;0.10;99.90
57829;DHT22;43657;52.698;6.314;2023-12-07T10:12:34;0.20;99.90
57829;DHT22;43657;52.698;6.314;2023-12-07T10:15:01;0.20;99.90
57829;DHT22;43657;52.698;6.314;2023-12-07T10:17:55;0.20;99.90
57829;DHT22;43657;52.698;6.314;2023-12-07T10:20:24;0.20;99.90
57829;DHT22;43657;52.698;6.314;2023-12-07T10:23:10;0.20;99.90
57829;DHT22;43657;52.698;6.314;2023-12-07T10:28:03;0.20;99.90
57829;DHT22;43657;52.698;6.314;2023-12-07T10:30:37;0.20;99.90
57829;DHT22;43657;52.698;6.314;2023-12-07T10:33:07;0.20;99.90
57829;DHT22;43657;52.698;6.314;2023-12-07T10:35:33;0.30;99.90
57829;DHT22;43657;52.698;6.314;2023-12-07T10:37:58;0.30;99.90
57829;DHT22;43657;52.698;6.314;2023-12-07T10:40:25;0.30;99.90
57829;DHT22;43657;52.698;6.314;2023-12-07T10:42:55;0.30;99.90
57829;DHT22;43657;52.698;6.314;2023-12-07T10:45:22;0.30;99.90
57829;DHT22;43657;52.698;6.314;2023-12-07T10:47:51;0.30;99.90
57829;DHT22;43657;52.698;6.314;2023-12-07T10:50:21;0.30;99.90
57829;DHT22;43657;52.698;6.314;2023-12-07T10:52:54;0.30;99.90
57829;DHT22;43657;52.698;6.314;2023-12-07T10:55:30;0.30;99.90
57829;DHT22;43657;52.698;6.314;2023-12-07T10:58:00;0.30;99.90
57829;DHT22;43657;52.698;6.314;2023-12-07T11:00:27;0.30;99.90
57829;DHT22;43657;52.698;6.314;2023-12-07T11:02:53;0.40;99.90
57829;DHT22;43657;52.698;6.314;2023-12-07T11:05:19;0.30;99.90
57829;DHT22;43657;52.698;6.314;2023-12-07T11:08:05;0.30;99.90
57829;DHT22;43657;52.698;6.314;2023-12-07T11:10:41;0.40;99.90
57829;DHT22;43657;52.698;6.314;2023-12-07T11:13:16;0.40;99.90
57829;DHT22;43657;52.698;6.314;2023-12-07T11:15:43;0.40;99.90
57829;DHT22;43657;52.698;6.314;2023-12-07T11:18:09;0.40;99.90
57829;DHT22;43657;52.698;6.314;2023-12-07T11:20:42;0.40;99.90
57829;DHT22;43657;52.698;6.314;2023-12-07T11:23:16;0.40;99.90
57829;DHT22;43657;52.698;6.314;2023-12-07T11:25:46;0.40;99.90
57829;DHT22;43657;52.698;6.314;2023-12-07T11:28:15;0.40;99.90
57829;DHT22;43657;52.698;6.314;2023-12-07T11:30:58;0.40;99.90
57829;DHT22;43657;52.698;6.314;2023-12-07T11:33:29;0.50;99.90
57829;DHT22;43657;52.698;6.314;2023-12-07T11:36:08;0.50;99.90
57829;DHT22;43657;52.698;6.314;2023-12-07T11:38:36;0.50;99.90
57829;DHT22;43657;52.698;6.314;2023-12-07T11:41:02;0.50;99.90
57829;DHT22;43657;52.698;6.314;2023-12-07T11:46:11;0.50;99.90
57829;DHT22;43657;52.698;6.314;2023-12-07T11:48:50;0.50;99.90
57829;DHT22;43657;52.698;6.314;2023-12-07T11:51:26;0.60;99.90
57829;DHT22;43657;52.698;6.314;2023-12-07T11:54:31;0.50;99.90
57829;DHT22;43657;52.698;6.314;2023-12-07T11:57:03;0.50;99.90
57829;DHT22;43657;52.698;6.314;2023-12-07T11:59:33;0.60;99.90
57829;DHT22;43657;52.698;6.314;2023-12-07T12:02:13;0.60;99.90
57829;DHT22;43657;52.698;6.314;2023-12-07T12:04:47;0.60;99.90
57829;DHT22;43657;52.698;6.314;2023-12-07T12:07:29;0.60;99.90
57829;DHT22;43657;52.698;6.314;2023-12-07T12:10:02;0.70;99.90
57829;DHT22;43657;52.698;6.314;2023-12-07T12:12:38;0.80;99.90
57829;DHT22;43657;52.698;6.314;2023-12-07T12:15:08;0.80;99.90
57829;DHT22;43657;52.698;6.314;2023-12-07T12:17:37;0.80;99.90
57829;DHT22;43657;52.698;6.314;2023-12-07T12:20:21;0.90;99.90
57829;DHT22;43657;52.698;6.314;2023-12-07T12:23:02;0.80;99.90
57829;DHT22;43657;52.698;6.314;2023-12-07T12:25:29;0.80;99.90
57829;DHT22;43657;52.698;6.314;2023-12-07T12:28:02;0.80;99.90
57829;DHT22;43657;52.698;6.314;2023-12-07T12:30:35;0.80;99.90
57829;DHT22;43657;52.698;6.314;2023-12-07T12:33:01;0.90;99.90
57829;DHT22;43657;52.698;6.314;2023-12-07T12:35:27;0.90;99.90
57829;DHT22;43657;52.698;6.314;2023-12-07T12:38:09;0.90;99.90
57829;DHT22;43657;52.698;6.314;2023-12-07T12:40:38;0.90;99.90
57829;DHT22;43657;52.698;6.314;2023-12-07T12:43:09;0.90;99.90
57829;DHT22;43657;52.698;6.314;2023-12-07T12:45:41;0.90;99.90
57829;DHT22;43657;52.698;6.314;2023-12-07T12:48:10;0.90;99.90
57829;DHT22;43657;52.698;6.314;2023-12-07T12:50:40;0.90;99.90
57829;DHT22;43657;52.698;6.314;2023-12-07T12:53:09;0.90;99.90
57829;DHT22;43657;52.698;6.314;2023-12-07T12:55:37;1.00;99.90
57829;DHT22;43657;52.698;6.314;2023-12-07T12:58:05;1.00;99.90
57829;DHT22;43657;52.698;6.314;2023-12-07T13:00:35;1.00;99.90
57829;DHT22;43657;52.698;6.314;2023-12-07T13:03:06;1.00;99.90
57829;DHT22;43657;52.698;6.314;2023-12-07T13:05:32;1.10;99.90
57829;DHT22;43657;52.698;6.314;2023-12-07T13:08:03;1.10;99.90
57829;DHT22;43657;52.698;6.314;2023-12-07T13:10:33;1.10;99.90
57829;DHT22;43657;52.698;6.314;2023-12-07T13:13:00;1.10;99.90
57829;DHT22;43657;52.698;6.314;2023-12-07T13:15:29;1.20;99.90
57829;DHT22;43657;52.698;6.314;2023-12-07T13:17:56;1.10;99.90
57829;DHT22;43657;52.698;6.314;2023-12-07T13:20:22;1.10;99.90
57829;DHT22;43657;52.698;6.314;2023-12-07T13:22:49;1.20;99.90
57829;DHT22;43657;52.698;6.314;2023-12-07T13:25:15;1.20;99.90
57829;DHT22;43657;52.698;6.314;2023-12-07T13:27:41;1.10;99.90
57829;DHT22;43657;52.698;6.314;2023-12-07T13:30:09;1.20;99.90
57829;DHT22;43657;52.698;6.314;2023-12-07T13:32:36;1.20;99.90
57829;DHT22;43657;52.698;6.314;2023-12-07T13:35:07;1.20;99.90
57829;DHT22;43657;52.698;6.314;2023-12-07T13:37:36;1.20;99.90
57829;DHT22;43657;52.698;6.314;2023-12-07T13:40:03;1.20;99.90
57829;DHT22;43657;52.698;6.314;2023-12-07T13:42:32;1.30;99.90
57829;DHT22;43657;52.698;6.314;2023-12-07T13:45:01;1.30;99.90
57829;DHT22;43657;52.698;6.314;2023-12-07T13:47:30;1.30;99.90
57829;DHT22;43657;52.698;6.314;2023-12-07T13:50:02;1.30;99.90
57829;DHT22;43657;52.698;6.314;2023-12-07T13:52:29;1.30;99.90
57829;DHT22;43657;52.698;6.314;2023-12-07T13:54:56;1.30;99.90
57829;DHT22;43657;52.698;6.314;2023-12-07T13:57:23;1.30;99.90
57829;DHT22;43657;52.698;6.314;2023-12-07T14:00:01;1.30;99.90
57829;DHT22;43657;52.698;6.314;2023-12-07T14:02:30;1.30;99.90
57829;DHT22;43657;52.698;6.314;2023-12-07T14:05:05;1.30;99.90
57829;DHT22;43657;52.698;6.314;2023-12-07T14:07:31;1.30;99.90
57829;DHT22;43657;52.698;6.314;2023-12-07T14:09:58;1.40;99.90
57829;DHT22;43657;52.698;6.314;2023-12-07T14:12:27;1.40;99.90
57829;DHT22;43657;52.698;6.314;2023-12-07T14:14:54;1.40;99.90
57829;DHT22;43657;52.698;6.314;2023-12-07T14:17:22;1.40;99.90
57829;DHT22;43657;52.698;6.314;2023-12-07T14:19:49;1.40;99.90
57829;DHT22;43657;52.698;6.314;2023-12-07T14:22:15;1.40;99.90
57829;DHT22;43657;52.698;6.314;2023-12-07T14:24:44;1.40;99.90
57829;DHT22;43657;52.698;6.314;2023-12-07T14:27:13;1.40;99.90
57829;DHT22;43657;52.698;6.314;2023-12-07T14:29:46;1.30;99.90
57829;DHT22;43657;52.698;6.314;2023-12-07T14:32:13;1.40;99.90
57829;DHT22;43657;52.698;6.314;2023-12-07T14:34:39;1.50;99.90
57829;DHT22;43657;52.698;6.314;2023-12-07T14:37:08;1.40;99.90
57829;DHT22;43657;52.698;6.314;2023-12-07T14:39:41;1.40;99.90
57829;DHT22;43657;52.698;6.314;2023-12-07T14:42:13;1.40;99.90
57829;DHT22;43657;52.698;6.314;2023-12-07T14:44:52;1.40;99.90
57829;DHT22;43657;52.698;6.314;2023-12-07T14:47:20;1.50;99.90
57829;DHT22;43657;52.698;6.314;2023-12-07T14:49:49;1.40;99.90
57829;DHT22;43657;52.698;6.314;2023-12-07T14:52:27;1.40;99.90
57829;DHT22;43657;52.698;6.314;2023-12-07T14:54:53;1.50;99.90
57829;DHT22;43657;52.698;6.314;2023-12-07T14:57:27;1.50;99.90
57829;DHT22;43657;52.698;6.314;2023-12-07T14:59:53;1.50;99.90
57829;DHT22;43657;52.698;6.314;2023-12-07T15:02:29;1.50;99.90
57829;DHT22;43657;52.698;6.314;2023-12-07T15:05:00;1.50;99.90
57829;DHT22;43657;52.698;6.314;2023-12-07T15:07:29;1.50;99.90
57829;DHT22;43657;52.698;6.314;2023-12-07T15:10:02;1.70;99.90
57829;DHT22;43657;52.698;6.314;2023-12-07T15:12:31;1.60;99.90
57829;DHT22;43657;52.698;6.314;2023-12-07T15:15:00;1.50;99.90
57829;DHT22;43657;52.698;6.314;2023-12-07T15:17:29;1.60;99.90
57829;DHT22;43657;52.698;6.314;2023-12-07T15:19:57;1.60;99.90
57829;DHT22;43657;52.698;6.314;2023-12-07T15:22:28;1.60;99.90
57829;DHT22;43657;52.698;6.314;2023-12-07T15:25:00;1.60;99.90
57829;DHT22;43657;52.698;6.314;2023-12-07T15:27:33;1.60;99.90
57829;DHT22;43657;52.698;6.314;2023-12-07T15:30:21;1.60;99.90
57829;DHT22;43657;52.698;6.314;2023-12-07T15:32:55;1.70;99.90
57829;DHT22;43657;52.698;6.314;2023-12-07T15:35:23;1.70;99.90
57829;DHT22;43657;52.698;6.314;2023-12-07T15:37:49;1.70;99.90
57829;DHT22;43657;52.698;6.314;2023-12-07T15:40:18;1.70;99.90
57829;DHT22;43657;52.698;6.314;2023-12-07T15:42:43;1.70;99.90
57829;DHT22;43657;52.698;6.314;2023-12-07T15:45:14;1.70;99.90
57829;DHT22;43657;52.698;6.314;2023-12-07T15:47:40;1.70;99.90
57829;DHT22;43657;52.698;6.314;2023-12-07T15:50:09;1.70;99.90
57829;DHT22;43657;52.698;6.314;2023-12-07T15:52:44;1.70;99.90
57829;DHT22;43657;52.698;6.314;2023-12-07T15:55:19;1.70;99.90
57829;DHT22;43657;52.698;6.314;2023-12-07T15:57:53;1.70;99.90